createdAt,value
2022-12-29T00:01:42.339Z,97.59
2022-12-29T00:04:15.140Z,98.81
2022-12-29T00:06:43.749Z,98.57
2022-12-29T00:09:13.514Z,100.00
2022-12-29T00:11:40.192Z,100.00
2022-12-29T00:14:26.475Z,100.00
2022-12-29T00:16:53.107Z,100.00
2022-12-29T00:19:39.042Z,100.00
2022-12-29T00:22:24.172Z,100.00
2022-12-29T00:25:02.796Z,100.00
2022-12-29T00:27:48.974Z,100.00
2022-12-29T00:30:39.762Z,100.00
2022-12-29T00:33:30.274Z,100.00
2022-12-29T00:36:01.996Z,100.00
2022-12-29T00:38:51.009Z,100.00
2022-12-29T00:41:53.008Z,100.00
2022-12-29T00:44:19.653Z,100.00
2022-12-29T00:46:46.480Z,100.00
2022-12-29T00:49:32.869Z,100.00
2022-12-29T00:52:09.027Z,100.00
2022-12-29T00:54:38.514Z,100.00
2022-12-29T00:57:07.335Z,100.00
2022-12-29T00:59:36.528Z,100.00
2022-12-29T01:02:03.720Z,100.00
2022-12-29T01:04:30.768Z,100.00
2022-12-29T01:06:57.403Z,100.00
2022-12-29T01:09:42.981Z,100.00
2022-12-29T01:12:10.653Z,100.00
2022-12-29T01:14:38.252Z,100.00
2022-12-29T01:17:05.536Z,100.00
2022-12-29T01:19:33.125Z,100.00
2022-12-29T01:22:01.023Z,100.00
2022-12-29T01:24:28.352Z,100.00
2022-12-29T01:26:55.651Z,100.00
2022-12-29T01:29:22.680Z,100.00
2022-12-29T01:31:50.669Z,100.00
2022-12-29T01:34:18.099Z,100.00
2022-12-29T01:36:44.988Z,100.00
2022-12-29T01:39:13.137Z,100.00
2022-12-29T01:41:41.136Z,100.00
2022-12-29T01:44:45.310Z,100.00
2022-12-29T01:47:11.941Z,100.00
2022-12-29T01:49:39.380Z,100.00
2022-12-29T01:52:08.971Z,100.00
2022-12-29T01:54:42.052Z,99.57
2022-12-29T01:57:17.228Z,98.23
2022-12-29T01:59:54.186Z,98.05
2022-12-29T02:02:21.080Z,97.53
2022-12-29T02:04:49.047Z,96.71
2022-12-29T02:07:23.870Z,97.34
2022-12-29T02:09:52.751Z,96.91
2022-12-29T02:12:21.350Z,96.27
2022-12-29T02:14:51.577Z,96.15
2022-12-29T02:17:39.262Z,96.40
2022-12-29T02:20:30.222Z,96.27
2022-12-29T02:23:24.830Z,96.78
2022-12-29T02:26:30.354Z,96.39
2022-12-29T02:29:22.969Z,96.83
2022-12-29T02:32:00.407Z,96.59
2022-12-29T02:34:57.691Z,96.77
2022-12-29T02:37:31.978Z,98.08
2022-12-29T02:40:18.525Z,98.23
2022-12-29T02:42:58.668Z,99.63
2022-12-29T02:46:13.905Z,98.61
2022-12-29T02:49:02.600Z,97.93
2022-12-29T02:51:44.627Z,97.74
2022-12-29T02:54:30.117Z,98.26
2022-12-29T02:56:56.730Z,98.79
2022-12-29T02:59:24.309Z,100.00
2022-12-29T03:02:19.133Z,100.00
2022-12-29T03:05:08.961Z,100.00
2022-12-29T03:07:41.599Z,100.00
2022-12-29T03:10:31.246Z,97.24
2022-12-29T03:13:32.294Z,96.28
2022-12-29T03:16:08.252Z,95.13
2022-12-29T03:18:57.657Z,93.23
2022-12-29T03:21:55.582Z,92.83
2022-12-29T03:24:28.498Z,92.61
2022-12-29T03:27:01.595Z,91.47
2022-12-29T03:29:36.701Z,90.94
2022-12-29T03:32:05.960Z,91.31
2022-12-29T03:34:34.390Z,91.18
2022-12-29T03:37:11.406Z,89.96
2022-12-29T03:39:38.453Z,90.08
2022-12-29T03:42:14.673Z,88.72
2022-12-29T03:44:44.221Z,89.76
2022-12-29T03:47:15.297Z,89.74
2022-12-29T03:49:43.170Z,90.47
2022-12-29T03:52:09.811Z,91.55
2022-12-29T03:54:42.351Z,91.99
2022-12-29T03:57:10.479Z,92.68
2022-12-29T03:59:47.264Z,92.23
2022-12-29T04:02:14.145Z,91.13
2022-12-29T04:04:41.693Z,91.42
2022-12-29T04:07:09.273Z,90.68
2022-12-29T04:09:36.048Z,90.49
2022-12-29T04:12:03.293Z,90.10
2022-12-29T04:14:30.218Z,89.91
2022-12-29T04:16:57.080Z,90.10
2022-12-29T04:19:23.857Z,90.34
2022-12-29T04:21:50.590Z,90.09
2022-12-29T04:24:18.802Z,89.63
2022-12-29T04:26:45.850Z,89.54
2022-12-29T04:29:30.047Z,90.24
2022-12-29T04:32:05.950Z,89.00
2022-12-29T04:34:35.349Z,89.48
2022-12-29T04:37:01.941Z,88.52
2022-12-29T04:39:28.950Z,87.74
2022-12-29T04:41:55.604Z,87.94
2022-12-29T04:44:22.317Z,87.22
2022-12-29T04:46:54.967Z,86.87
2022-12-29T04:49:40.045Z,87.39
2022-12-29T04:52:41.749Z,87.92
2022-12-29T04:55:10.655Z,88.10
2022-12-29T04:57:37.707Z,88.17
2022-12-29T05:00:05.348Z,88.34
2022-12-29T05:02:33.070Z,88.18
2022-12-29T05:05:00.717Z,88.24
2022-12-29T05:07:27.883Z,88.38
2022-12-29T05:09:55.478Z,88.72
2022-12-29T05:12:22.120Z,88.85
2022-12-29T05:14:57.344Z,90.04
2022-12-29T05:17:24.573Z,91.10
2022-12-29T05:19:51.422Z,91.83
2022-12-29T05:22:18.941Z,91.60
2022-12-29T05:24:45.929Z,92.43
2022-12-29T05:27:12.664Z,91.44
2022-12-29T05:29:58.002Z,91.14
2022-12-29T05:32:25.114Z,91.68
2022-12-29T05:34:53.082Z,91.17
2022-12-29T05:37:19.826Z,90.53
2022-12-29T05:39:46.528Z,90.49
2022-12-29T05:42:13.852Z,91.12
2022-12-29T05:45:09.474Z,91.28
2022-12-29T05:47:48.711Z,91.39
2022-12-29T05:50:37.747Z,91.57
2022-12-29T05:53:12.052Z,91.64
2022-12-29T05:55:42.193Z,91.59
2022-12-29T05:58:13.724Z,91.09
2022-12-29T06:00:41.289Z,90.24
2022-12-29T06:03:11.062Z,90.04
2022-12-29T06:05:37.901Z,89.06
2022-12-29T06:08:04.794Z,89.05
2022-12-29T06:10:31.427Z,89.24
2022-12-29T06:13:02.770Z,91.08
2022-12-29T06:15:31.255Z,93.20
2022-12-29T06:17:58.089Z,96.70
2022-12-29T06:20:24.705Z,95.60
2022-12-29T06:22:52.596Z,97.01
2022-12-29T06:25:19.363Z,96.91
2022-12-29T06:27:46.791Z,98.50
2022-12-29T06:30:13.974Z,99.83
2022-12-29T06:32:41.158Z,100.00
2022-12-29T06:35:11.058Z,100.00
2022-12-29T06:37:42.693Z,100.00
2022-12-29T06:40:09.872Z,100.00
2022-12-29T06:42:55.003Z,100.00
2022-12-29T06:45:56.680Z,100.00
2022-12-29T06:48:23.309Z,100.00
2022-12-29T06:50:49.941Z,100.00
2022-12-29T06:53:16.627Z,100.00
2022-12-29T06:55:43.499Z,98.59
2022-12-29T06:58:10.485Z,98.63
2022-12-29T07:00:37.082Z,98.18
2022-12-29T07:03:03.901Z,97.99
2022-12-29T07:05:32.552Z,96.10
2022-12-29T07:07:59.877Z,95.69
2022-12-29T07:10:27.014Z,96.11
2022-12-29T07:12:53.753Z,96.42
2022-12-29T07:15:20.317Z,95.74
2022-12-29T07:17:46.879Z,95.87
2022-12-29T07:20:13.445Z,96.14
2022-12-29T07:22:40.061Z,95.25
2022-12-29T07:25:06.873Z,95.26
2022-12-29T07:27:33.617Z,94.61
2022-12-29T07:30:00.244Z,93.91
2022-12-29T07:32:26.977Z,93.94
2022-12-29T07:34:53.586Z,93.10
2022-12-29T07:37:20.501Z,92.17
2022-12-29T07:39:47.062Z,92.13
2022-12-29T07:42:13.657Z,92.51
2022-12-29T07:44:43.532Z,94.18
2022-12-29T07:47:16.611Z,95.71
2022-12-29T07:49:43.398Z,96.65
2022-12-29T07:52:09.992Z,98.28
2022-12-29T07:54:36.606Z,100.00
2022-12-29T07:57:03.316Z,100.00
2022-12-29T07:59:30.153Z,100.00
2022-12-29T08:01:56.878Z,100.00
2022-12-29T08:04:23.595Z,98.66
2022-12-29T08:06:50.976Z,99.14
2022-12-29T08:09:22.337Z,97.33
2022-12-29T08:11:50.820Z,97.17
2022-12-29T08:14:17.477Z,97.75
2022-12-29T08:16:44.017Z,99.06
2022-12-29T08:19:14.021Z,98.73
2022-12-29T08:21:40.711Z,98.53
2022-12-29T08:24:08.872Z,98.97
2022-12-29T08:26:35.538Z,99.05
2022-12-29T08:29:02.185Z,98.84
2022-12-29T08:31:28.798Z,100.00
2022-12-29T08:33:55.390Z,100.00
2022-12-29T08:36:22.079Z,100.00
2022-12-29T08:38:48.646Z,100.00
2022-12-29T08:41:15.233Z,100.00
2022-12-29T08:43:41.816Z,100.00
2022-12-29T08:46:08.498Z,100.00
2022-12-29T08:48:35.133Z,100.00
2022-12-29T08:51:01.741Z,100.00
2022-12-29T08:53:28.380Z,100.00
2022-12-29T08:56:04.595Z,100.00
2022-12-29T08:58:38.876Z,100.00
2022-12-29T09:01:05.884Z,100.00
2022-12-29T09:06:19.818Z,98.63
2022-12-29T09:08:46.437Z,97.73
2022-12-29T09:11:19.819Z,97.67
2022-12-29T09:13:47.187Z,97.41
2022-12-29T09:16:14.006Z,97.82
2022-12-29T09:18:41.233Z,98.34
2022-12-29T09:21:08.408Z,100.00
2022-12-29T09:23:35.601Z,100.00
2022-12-29T09:26:02.636Z,100.00
2022-12-29T09:28:30.066Z,100.00
2022-12-29T09:30:58.200Z,100.00
2022-12-29T09:33:25.246Z,100.00
2022-12-29T09:35:57.216Z,100.00
2022-12-29T09:38:25.359Z,100.00
2022-12-29T09:40:56.815Z,100.00
2022-12-29T09:43:48.319Z,99.04
2022-12-29T09:46:29.335Z,98.17
2022-12-29T09:49:13.016Z,97.17
2022-12-29T09:51:44.147Z,94.97
2022-12-29T09:54:16.328Z,94.24
2022-12-29T09:56:44.385Z,93.27
2022-12-29T09:59:20.648Z,91.17
2022-12-29T10:02:06.014Z,88.67
2022-12-29T10:04:32.802Z,89.04
2022-12-29T10:07:34.187Z,86.27
2022-12-29T10:10:38.306Z,86.22
2022-12-29T10:13:07.915Z,84.95
2022-12-29T10:15:53.252Z,83.05
2022-12-29T10:18:50.165Z,82.72
2022-12-29T10:21:22.368Z,82.22
2022-12-29T10:23:54.090Z,83.84
2022-12-29T10:26:31.974Z,81.81
2022-12-29T10:29:07.455Z,78.39
2022-12-29T10:31:45.169Z,78.08
2022-12-29T10:34:27.354Z,78.97
2022-12-29T10:37:03.908Z,78.86
2022-12-29T10:39:50.402Z,79.28
2022-12-29T10:42:26.700Z,79.75
2022-12-29T10:44:55.284Z,80.35
2022-12-29T10:47:26.182Z,80.67
2022-12-29T10:49:53.298Z,80.29
2022-12-29T10:52:21.951Z,79.83
2022-12-29T10:54:56.983Z,79.54
2022-12-29T10:57:37.734Z,78.26
2022-12-29T11:00:17.458Z,78.05
2022-12-29T11:02:58.101Z,76.37
2022-12-29T11:05:41.611Z,76.96
2022-12-29T11:08:15.331Z,76.88
2022-12-29T11:10:44.990Z,77.19
2022-12-29T11:13:13.481Z,76.02
2022-12-29T11:15:42.020Z,75.99
2022-12-29T11:18:20.287Z,75.51
2022-12-29T11:20:46.920Z,76.60
2022-12-29T11:23:33.399Z,75.79
2022-12-29T11:26:22.203Z,74.88
2022-12-29T11:29:15.239Z,73.08
2022-12-29T11:31:47.019Z,73.16
2022-12-29T11:34:23.253Z,73.54
2022-12-29T11:36:53.726Z,74.32
2022-12-29T11:39:42.093Z,74.77
2022-12-29T11:42:15.874Z,74.25
2022-12-29T11:44:48.191Z,74.58
2022-12-29T11:47:27.736Z,74.73
2022-12-29T11:49:58.194Z,74.14
2022-12-29T11:52:27.825Z,74.71
2022-12-29T11:54:55.899Z,75.36
2022-12-29T11:57:23.957Z,75.80
2022-12-29T11:59:53.028Z,75.46
2022-12-29T12:02:43.731Z,75.35
2022-12-29T12:05:19.753Z,73.56
2022-12-29T12:07:50.608Z,72.10
2022-12-29T12:11:06.850Z,71.40
2022-12-29T12:14:03.716Z,69.35
2022-12-29T12:16:56.762Z,69.83
2022-12-29T12:19:41.449Z,70.16
2022-12-29T12:22:28.598Z,70.30
2022-12-29T12:25:10.461Z,70.08
2022-12-29T12:27:56.983Z,71.15
2022-12-29T12:30:26.043Z,71.30
2022-12-29T12:32:57.782Z,70.74
2022-12-29T12:35:42.342Z,69.45
2022-12-29T12:38:31.962Z,69.57
2022-12-29T12:41:21.801Z,70.50
2022-12-29T12:43:48.745Z,70.35
2022-12-29T12:46:33.675Z,70.46
2022-12-29T12:49:33.581Z,69.54
2022-12-29T12:52:23.594Z,69.69
2022-12-29T12:55:03.200Z,68.71
2022-12-29T12:58:00.980Z,68.44
2022-12-29T13:00:31.462Z,67.34
2022-12-29T13:03:25.997Z,67.53
2022-12-29T13:06:07.063Z,67.86
2022-12-29T13:08:58.433Z,68.16
2022-12-29T13:11:53.876Z,67.73
2022-12-29T13:14:31.300Z,66.92
2022-12-29T13:17:27.054Z,67.23
2022-12-29T13:20:03.106Z,67.03
2022-12-29T13:22:48.612Z,67.20
2022-12-29T13:25:26.392Z,67.18
2022-12-29T13:28:01.894Z,67.78
2022-12-29T13:30:37.952Z,67.64
2022-12-29T13:33:21.578Z,67.30
2022-12-29T13:36:12.980Z,67.37
2022-12-29T13:38:45.261Z,67.89
2022-12-29T13:41:17.558Z,67.69
2022-12-29T13:43:47.860Z,68.42
2022-12-29T13:46:19.589Z,68.53
2022-12-29T13:48:49.749Z,69.27
2022-12-29T13:51:20.201Z,70.05
2022-12-29T13:54:10.844Z,70.22
2022-12-29T13:56:41.267Z,69.44
2022-12-29T13:59:43.625Z,69.94
2022-12-29T14:02:43.820Z,70.70
2022-12-29T14:05:22.611Z,71.08
2022-12-29T14:07:57.513Z,71.17
2022-12-29T14:10:28.294Z,71.92
2022-12-29T14:13:04.234Z,72.43
2022-12-29T14:15:30.914Z,72.53
2022-12-29T14:18:02.749Z,73.45
2022-12-29T14:20:29.509Z,73.73
2022-12-29T14:23:34.960Z,74.26
2022-12-29T14:26:07.262Z,73.87
2022-12-29T14:28:42.532Z,74.57
2022-12-29T14:31:15.116Z,74.75
2022-12-29T14:34:02.462Z,73.55
2022-12-29T14:36:42.488Z,71.95
2022-12-29T14:39:27.752Z,71.83
2022-12-29T14:42:02.342Z,71.74
2022-12-29T14:44:29.003Z,71.58
2022-12-29T14:47:01.330Z,71.87
2022-12-29T14:49:41.971Z,71.62
2022-12-29T14:52:18.276Z,71.48
2022-12-29T14:54:50.596Z,71.43
2022-12-29T14:57:27.099Z,72.16
2022-12-29T14:59:57.191Z,72.31
2022-12-29T15:02:27.244Z,72.74
2022-12-29T15:05:00.264Z,72.62
2022-12-29T15:07:29.923Z,71.65
2022-12-29T15:10:05.669Z,71.72
2022-12-29T15:12:40.842Z,72.04
2022-12-29T15:15:18.611Z,71.63
2022-12-29T15:17:45.218Z,72.49
2022-12-29T15:20:17.631Z,72.28
2022-12-29T15:22:52.953Z,72.89
2022-12-29T15:25:19.633Z,73.14
2022-12-29T15:28:01.745Z,72.63
2022-12-29T15:30:28.689Z,72.21
2022-12-29T15:32:55.368Z,72.24
2022-12-29T15:35:51.387Z,72.33
2022-12-29T15:38:33.449Z,72.60
2022-12-29T15:41:11.892Z,72.83
2022-12-29T15:43:59.681Z,72.66
2022-12-29T15:46:30.966Z,72.35
2022-12-29T15:48:58.037Z,72.31
2022-12-29T15:51:30.961Z,72.26
2022-12-29T15:53:58.978Z,72.08
2022-12-29T15:56:29.928Z,72.24
2022-12-29T15:58:57.008Z,71.75
2022-12-29T16:01:31.819Z,71.58
2022-12-29T16:04:05.487Z,71.78
2022-12-29T16:06:40.269Z,71.40
2022-12-29T16:09:17.096Z,71.76
2022-12-29T16:11:55.916Z,71.96
2022-12-29T16:14:48.454Z,72.43
2022-12-29T16:17:22.338Z,72.84
2022-12-29T16:19:59.616Z,73.04
2022-12-29T16:22:41.206Z,73.25
2022-12-29T16:25:23.528Z,74.02
2022-12-29T16:27:51.158Z,74.43
2022-12-29T16:30:33.171Z,75.35
2022-12-29T16:33:03.017Z,75.66
2022-12-29T16:35:59.089Z,76.35
2022-12-29T16:38:34.008Z,76.35
2022-12-29T16:41:03.432Z,75.93
2022-12-29T16:43:35.901Z,75.98
2022-12-29T16:46:03.298Z,75.81
2022-12-29T16:48:34.721Z,76.16
2022-12-29T16:51:16.613Z,75.45
2022-12-29T16:53:50.598Z,75.30
2022-12-29T16:56:21.216Z,75.37
2022-12-29T16:58:49.735Z,75.46
2022-12-29T17:01:20.481Z,75.52
2022-12-29T17:03:58.372Z,75.45
2022-12-29T17:06:25.505Z,75.45
2022-12-29T17:08:53.205Z,75.65
2022-12-29T17:11:43.210Z,75.65
2022-12-29T17:14:22.137Z,75.37
2022-12-29T17:16:49.786Z,75.04
2022-12-29T17:19:25.010Z,73.99
2022-12-29T17:21:51.736Z,74.58
2022-12-29T17:24:20.549Z,74.94
2022-12-29T17:26:52.164Z,75.17
2022-12-29T17:29:38.525Z,75.29
2022-12-29T17:32:10.526Z,75.60
2022-12-29T17:34:37.162Z,75.68
2022-12-29T17:37:04.300Z,75.76
2022-12-29T17:39:30.856Z,76.12
2022-12-29T17:41:57.494Z,76.52
2022-12-29T17:44:26.316Z,76.24
2022-12-29T17:46:53.005Z,76.34
2022-12-29T17:49:19.635Z,77.04
2022-12-29T17:51:47.410Z,77.27
2022-12-29T17:54:22.815Z,77.56
2022-12-29T17:56:49.607Z,77.88
2022-12-29T17:59:16.797Z,78.36
2022-12-29T18:01:45.769Z,78.26
2022-12-29T18:04:19.397Z,78.44
2022-12-29T18:06:47.113Z,78.76
2022-12-29T18:09:14.831Z,78.63
2022-12-29T18:11:43.425Z,79.39
2022-12-29T18:14:14.974Z,79.65
2022-12-29T18:16:41.669Z,79.54
2022-12-29T18:19:09.329Z,80.18
2022-12-29T18:21:37.001Z,80.69
2022-12-29T18:24:03.704Z,81.68
2022-12-29T18:26:35.796Z,81.48
2022-12-29T18:29:02.650Z,81.75
2022-12-29T18:31:32.079Z,82.30
2022-12-29T18:34:00.669Z,82.29
2022-12-29T18:36:29.310Z,82.37
2022-12-29T18:38:56.498Z,82.38
2022-12-29T18:41:26.434Z,82.67
2022-12-29T18:43:53.034Z,83.01
2022-12-29T18:46:23.074Z,83.59
2022-12-29T18:48:51.179Z,83.11
2022-12-29T18:51:20.867Z,82.81
2022-12-29T18:53:48.123Z,82.80
2022-12-29T18:56:15.152Z,82.95
2022-12-29T18:58:42.177Z,82.86
2022-12-29T19:01:19.763Z,83.48
2022-12-29T19:03:47.163Z,83.06
2022-12-29T19:06:13.896Z,83.00
2022-12-29T19:08:40.552Z,83.30
2022-12-29T19:11:07.513Z,83.00
2022-12-29T19:13:34.098Z,83.02
2022-12-29T19:16:01.064Z,83.21
2022-12-29T19:18:47.449Z,83.60
2022-12-29T19:21:15.727Z,83.20
2022-12-29T19:23:42.415Z,82.69
2022-12-29T19:26:27.730Z,82.29
2022-12-29T19:28:54.276Z,82.16
2022-12-29T19:31:20.866Z,82.32
2022-12-29T19:33:47.447Z,82.11
2022-12-29T19:36:18.168Z,82.41
2022-12-29T19:38:46.097Z,82.46
2022-12-29T19:41:13.805Z,82.42
2022-12-29T19:43:40.439Z,82.61
2022-12-29T19:46:09.536Z,82.93
2022-12-29T19:48:36.690Z,83.01
2022-12-29T19:51:09.329Z,83.41
2022-12-29T19:53:36.642Z,83.48
2022-12-29T19:56:08.657Z,83.26
2022-12-29T19:58:36.598Z,82.90
2022-12-29T20:01:07.346Z,83.20
2022-12-29T20:03:34.961Z,83.83
2022-12-29T20:06:02.030Z,83.86
2022-12-29T20:08:28.633Z,83.09
2022-12-29T20:11:08.965Z,83.12
2022-12-29T20:13:37.310Z,83.35
2022-12-29T20:16:07.581Z,83.69
2022-12-29T20:18:36.031Z,83.95
2022-12-29T20:21:21.936Z,83.72
2022-12-29T20:23:50.554Z,83.64
2022-12-29T20:26:23.012Z,84.16
2022-12-29T20:28:50.929Z,83.67
2022-12-29T20:31:29.929Z,83.84
2022-12-29T20:33:57.052Z,83.82
2022-12-29T20:36:27.383Z,83.55
2022-12-29T20:38:56.346Z,83.65
2022-12-29T20:41:23.874Z,84.24
2022-12-29T20:43:54.197Z,84.17
2022-12-29T20:46:25.230Z,83.83
2022-12-29T20:48:55.648Z,84.13
2022-12-29T20:51:22.598Z,84.87
2022-12-29T20:53:49.855Z,85.53
2022-12-29T20:56:19.586Z,85.58
2022-12-29T20:59:25.459Z,85.97
2022-12-29T21:01:36.095Z,85.09
2022-12-29T21:04:03.394Z,85.30
2022-12-29T21:06:30.319Z,85.98
2022-12-29T21:08:57.413Z,86.25
2022-12-29T21:11:24.217Z,86.51
2022-12-29T21:13:50.800Z,86.43
2022-12-29T21:16:20.988Z,86.60
2022-12-29T21:18:48.916Z,86.49
2022-12-29T21:21:21.358Z,86.93
2022-12-29T21:23:48.318Z,87.42
2022-12-29T21:26:18.326Z,87.42
2022-12-29T21:28:46.221Z,87.42
2022-12-29T21:31:23.188Z,87.98
2022-12-29T21:33:50.167Z,88.13
2022-12-29T21:36:16.770Z,87.92
2022-12-29T21:38:43.575Z,87.23
2022-12-29T21:41:14.944Z,87.44
2022-12-29T21:43:42.635Z,88.16
2022-12-29T21:46:09.417Z,87.36
2022-12-29T21:48:36.103Z,87.57
2022-12-29T21:51:30.969Z,87.12
2022-12-29T21:54:18.743Z,86.93
2022-12-29T21:56:46.698Z,86.75
2022-12-29T21:59:33.902Z,87.17
2022-12-29T22:02:19.946Z,87.03
2022-12-29T22:05:05.636Z,86.12
2022-12-29T22:07:50.879Z,85.83
2022-12-29T22:10:36.095Z,85.49
2022-12-29T22:13:03.517Z,85.59
2022-12-29T22:15:35.956Z,85.36
2022-12-29T22:18:03.884Z,85.51
2022-12-29T22:20:32.370Z,85.93
2022-12-29T22:22:59.315Z,85.83
2022-12-29T22:25:26.364Z,86.29
2022-12-29T22:27:58.900Z,86.84
2022-12-29T22:30:28.272Z,87.02
2022-12-29T22:32:56.778Z,87.84
2022-12-29T22:35:23.665Z,87.60
2022-12-29T22:37:50.873Z,88.29
2022-12-29T22:40:17.508Z,88.53
2022-12-29T22:42:44.376Z,89.40
2022-12-29T22:45:12.448Z,89.58
2022-12-29T22:47:39.662Z,90.21
2022-12-29T22:50:07.775Z,89.95
2022-12-29T22:52:34.732Z,90.16
2022-12-29T22:55:06.812Z,91.06
2022-12-29T22:57:34.728Z,91.46
2022-12-29T23:00:02.707Z,92.37
2022-12-29T23:02:30.430Z,91.80
2022-12-29T23:05:05.586Z,91.96
2022-12-29T23:07:34.461Z,91.63
2022-12-29T23:10:01.427Z,91.38
2022-12-29T23:12:32.083Z,91.90
2022-12-29T23:14:58.882Z,92.07
2022-12-29T23:17:25.534Z,92.79
2022-12-29T23:19:53.217Z,91.89
2022-12-29T23:22:21.208Z,92.06
2022-12-29T23:24:47.823Z,92.24
2022-12-29T23:27:14.672Z,92.82
2022-12-29T23:29:41.478Z,91.80
2022-12-29T23:32:08.114Z,92.41
2022-12-29T23:34:35.214Z,92.28
2022-12-29T23:37:01.792Z,91.78
2022-12-29T23:39:29.461Z,92.52
2022-12-29T23:41:56.771Z,93.01
2022-12-29T23:44:23.429Z,93.29
2022-12-29T23:46:50.658Z,93.43
2022-12-29T23:49:17.568Z,93.20
2022-12-29T23:51:44.621Z,93.97
2022-12-29T23:54:11.285Z,93.36
2022-12-29T23:56:38.359Z,93.38
2022-12-29T23:59:05.814Z,93.77
